createdAt,value
2023-01-20T00:01:03.286Z,99961.56
2023-01-20T00:03:29.918Z,99974.28
2023-01-20T00:05:56.323Z,99970.03
2023-01-20T00:08:23.808Z,99975.38
2023-01-20T00:10:50.236Z,99976.41
2023-01-20T00:13:16.618Z,99982.84
2023-01-20T00:15:43.187Z,99979.91
2023-01-20T00:18:09.615Z,99979.06
2023-01-20T00:20:38.340Z,99978.22
2023-01-20T00:23:04.765Z,99983.44
2023-01-20T00:25:31.194Z,99989.25
2023-01-20T00:27:57.556Z,99979.94
2023-01-20T00:30:24.217Z,99981.47
2023-01-20T00:32:51.969Z,99988.28
2023-01-20T00:35:18.380Z,100003.13
2023-01-20T00:37:47.380Z,100001.84
2023-01-20T00:40:13.907Z,100001.00
2023-01-20T00:42:42.970Z,100007.06
2023-01-20T00:45:09.852Z,100004.50
2023-01-20T00:47:38.591Z,100010.34
2023-01-20T00:50:05.410Z,100012.44
2023-01-20T00:52:31.888Z,100011.59
2023-01-20T00:55:00.547Z,100016.25
2023-01-20T00:57:29.335Z,100018.19
2023-01-20T00:59:55.789Z,100020.88
2023-01-20T01:02:22.294Z,100027.97
2023-01-20T01:04:52.007Z,100031.63
2023-01-20T01:07:20.953Z,100031.22
2023-01-20T01:09:52.954Z,100036.84
2023-01-20T01:12:19.416Z,100034.44
2023-01-20T01:14:45.972Z,100040.25
2023-01-20T01:17:12.387Z,100045.03
2023-01-20T01:19:38.909Z,100047.88
2023-01-20T01:22:05.332Z,100051.41
2023-01-20T01:24:31.808Z,100056.03
2023-01-20T01:27:00.981Z,100058.72
2023-01-20T01:29:27.413Z,100064.66
2023-01-20T01:31:56.980Z,100057.59
2023-01-20T01:34:23.556Z,100063.09
2023-01-20T01:36:50.137Z,100062.84
2023-01-20T01:39:16.713Z,100066.50
2023-01-20T01:41:43.121Z,100068.31
2023-01-20T01:44:14.069Z,100076.53
2023-01-20T01:46:41.845Z,100080.19
2023-01-20T01:49:13.986Z,100087.25
2023-01-20T01:52:03.585Z,100080.19
2023-01-20T01:54:37.782Z,100082.16
2023-01-20T01:57:07.458Z,100078.63
2023-01-20T01:59:35.127Z,100089.47
2023-01-20T02:02:01.770Z,100086.78
2023-01-20T02:04:28.517Z,100087.75
2023-01-20T02:07:00.151Z,100090.44
2023-01-20T02:09:27.463Z,100083.69
2023-01-20T02:12:01.600Z,100079.97
2023-01-20T02:14:37.383Z,100087.19
2023-01-20T02:17:22.123Z,100084.66
2023-01-20T02:20:13.024Z,100090.88
2023-01-20T02:22:58.818Z,100090.88
2023-01-20T02:25:33.980Z,100094.63
2023-01-20T02:28:48.588Z,100104.50
2023-01-20T02:31:35.342Z,100107.19
2023-01-20T02:34:14.222Z,100108.31
2023-01-20T02:36:45.504Z,100112.81
2023-01-20T02:39:32.866Z,100112.25
2023-01-20T02:42:12.379Z,100112.50
2023-01-20T02:44:52.065Z,100111.81
2023-01-20T02:47:21.305Z,100121.78
2023-01-20T02:50:00.331Z,100115.00
2023-01-20T02:52:31.021Z,100121.31
2023-01-20T02:55:03.857Z,100119.91
2023-01-20T02:57:42.183Z,100124.53
2023-01-20T03:00:14.791Z,100126.25
2023-01-20T03:02:44.157Z,100130.16
2023-01-20T03:05:17.625Z,100132.25
2023-01-20T03:07:45.862Z,100137.72
2023-01-20T03:10:16.539Z,100145.06
2023-01-20T03:12:51.350Z,100139.81
2023-01-20T03:15:25.591Z,100141.78
2023-01-20T03:17:54.792Z,100146.41
2023-01-20T03:20:21.316Z,100148.97
2023-01-20T03:22:47.702Z,100150.91
2023-01-20T03:25:15.211Z,100145.69
2023-01-20T03:27:42.678Z,100149.25
2023-01-20T03:30:16.527Z,100164.56
2023-01-20T03:32:49.929Z,100159.97
2023-01-20T03:35:19.802Z,100167.00
2023-01-20T03:37:46.729Z,100171.34
2023-01-20T03:40:14.503Z,100162.84
2023-01-20T03:42:49.339Z,100166.50
2023-01-20T03:45:35.695Z,100174.06
2023-01-20T03:48:10.966Z,100177.00
2023-01-20T03:50:51.210Z,100179.19
2023-01-20T03:53:33.507Z,100185.69
2023-01-20T03:56:21.854Z,100185.19
2023-01-20T03:58:52.628Z,100182.66
2023-01-20T04:01:29.075Z,100183.88
2023-01-20T04:03:57.172Z,100189.25
2023-01-20T04:06:26.727Z,100189.63
2023-01-20T04:08:57.027Z,100201.56
2023-01-20T04:11:27.290Z,100194.50
2023-01-20T04:14:01.253Z,100199.72
2023-01-20T04:16:27.820Z,100194.75
2023-01-20T04:18:55.392Z,100197.06
2023-01-20T04:21:43.675Z,100200.00
2023-01-20T04:24:26.416Z,100208.75
2023-01-20T04:26:52.998Z,100205.72
2023-01-20T04:29:19.696Z,100208.13
2023-01-20T04:31:46.172Z,100210.84
2023-01-20T04:34:18.404Z,100212.41
2023-01-20T04:36:44.976Z,100212.31
2023-01-20T04:39:11.954Z,100214.88
2023-01-20T04:41:41.064Z,100219.13
2023-01-20T04:44:07.482Z,100216.09
2023-01-20T04:46:36.713Z,100226.31
2023-01-20T04:49:03.336Z,100217.31
2023-01-20T04:51:29.733Z,100216.06
2023-01-20T04:53:57.515Z,100233.34
2023-01-20T04:56:24.110Z,100225.41
2023-01-20T04:58:53.096Z,100228.69
2023-01-20T05:01:19.682Z,100233.31
2023-01-20T05:03:49.262Z,100238.16
2023-01-20T05:06:18.800Z,100243.00
2023-01-20T05:08:45.665Z,100248.81
2023-01-20T05:11:12.230Z,100250.88
2023-01-20T05:13:40.193Z,100252.81
2023-01-20T05:16:12.761Z,100254.63
2023-01-20T05:18:39.338Z,100256.31
2023-01-20T05:21:08.845Z,100254.41
2023-01-20T05:23:36.012Z,100256.72
2023-01-20T05:26:02.770Z,100262.00
2023-01-20T05:28:31.444Z,100268.78
2023-01-20T05:31:04.189Z,100265.81
2023-01-20T05:33:30.787Z,100274.09
2023-01-20T05:35:59.709Z,100265.78
2023-01-20T05:38:28.504Z,100265.50
2023-01-20T05:41:02.414Z,100277.06
2023-01-20T05:43:29.011Z,100278.38
2023-01-20T05:45:55.853Z,100284.41
2023-01-20T05:48:23.045Z,100281.00
2023-01-20T05:50:51.849Z,100286.91
2023-01-20T05:53:19.083Z,100287.75
2023-01-20T05:55:45.917Z,100278.47
2023-01-20T05:58:12.769Z,100288.53
2023-01-20T06:00:39.285Z,100296.69
2023-01-20T06:03:05.803Z,100305.03
2023-01-20T06:05:32.473Z,100305.13
2023-01-20T06:07:59.069Z,100306.94
2023-01-20T06:10:28.054Z,100312.91
2023-01-20T06:12:57.839Z,100321.91
2023-01-20T06:15:25.366Z,100319.88
2023-01-20T06:17:54.950Z,100328.09
2023-01-20T06:20:21.548Z,100328.75
2023-01-20T06:22:54.229Z,100331.97
2023-01-20T06:25:20.666Z,100329.16
2023-01-20T06:27:47.031Z,100327.69
2023-01-20T06:30:13.986Z,100342.97
2023-01-20T06:32:40.456Z,100338.81
2023-01-20T06:35:11.235Z,100347.78
2023-01-20T06:37:37.812Z,100344.69
2023-01-20T06:40:05.278Z,100353.66
2023-01-20T06:42:32.188Z,100355.38
2023-01-20T06:44:58.589Z,100368.84
2023-01-20T06:47:27.325Z,100369.16
2023-01-20T06:49:53.802Z,100368.28
2023-01-20T06:52:22.540Z,100372.69
2023-01-20T06:54:52.213Z,100374.41
2023-01-20T06:57:19.463Z,100376.53
2023-01-20T06:59:45.985Z,100383.03
2023-01-20T07:02:12.671Z,100384.22
2023-01-20T07:04:39.562Z,100387.97
2023-01-20T07:07:05.981Z,100393.41
2023-01-20T07:09:32.380Z,100391.19
2023-01-20T07:12:01.411Z,100396.22
2023-01-20T07:14:27.930Z,100396.06
2023-01-20T07:16:54.366Z,100399.72
2023-01-20T07:19:20.853Z,100398.13
2023-01-20T07:21:47.553Z,100399.72
2023-01-20T07:24:13.931Z,100410.19
2023-01-20T07:26:40.368Z,100411.91
2023-01-20T07:29:06.936Z,100407.28
2023-01-20T07:31:34.337Z,100418.19
2023-01-20T07:34:00.827Z,100423.75
2023-01-20T07:36:30.206Z,100423.75
2023-01-20T07:38:59.144Z,100429.84
2023-01-20T07:41:28.814Z,100434.44
2023-01-20T07:43:57.585Z,100438.41
2023-01-20T07:46:24.043Z,100433.47
2023-01-20T07:48:50.664Z,100444.03
2023-01-20T07:51:18.351Z,100450.56
2023-01-20T07:53:47.094Z,100450.00
2023-01-20T07:56:25.425Z,100449.81
2023-01-20T07:58:52.590Z,100449.69
2023-01-20T08:01:30.600Z,100457.06
2023-01-20T08:04:00.341Z,100463.09
2023-01-20T08:06:27.741Z,100466.41
2023-01-20T08:08:57.051Z,100463.28
2023-01-20T08:11:24.947Z,100470.97
2023-01-20T08:13:53.745Z,100470.75
2023-01-20T08:16:20.495Z,100466.16
2023-01-20T08:18:47.207Z,100467.75
2023-01-20T08:21:24.702Z,100472.66
2023-01-20T08:23:51.538Z,100474.78
2023-01-20T08:26:19.301Z,100475.13
2023-01-20T08:28:46.383Z,100476.84
2023-01-20T08:31:16.965Z,100480.03
2023-01-20T08:33:44.485Z,100477.00
2023-01-20T08:36:18.565Z,100479.34
2023-01-20T08:38:48.239Z,100483.28
2023-01-20T08:41:42.949Z,100495.38
2023-01-20T08:44:12.265Z,100497.38
2023-01-20T08:46:42.047Z,100497.03
2023-01-20T08:49:16.222Z,100498.00
2023-01-20T08:51:44.578Z,100497.66
2023-01-20T08:54:11.382Z,100503.00
2023-01-20T08:56:37.894Z,100499.94
2023-01-20T08:59:04.773Z,100506.13
2023-01-20T09:01:37.791Z,100516.81
2023-01-20T09:04:06.790Z,100516.66
2023-01-20T09:06:43.036Z,100520.53
2023-01-20T09:09:12.982Z,100518.28
2023-01-20T09:11:44.761Z,100518.47
2023-01-20T09:14:11.409Z,100524.78
2023-01-20T09:16:38.014Z,100524.53
2023-01-20T09:19:04.591Z,100530.41
2023-01-20T09:21:33.230Z,100531.31
2023-01-20T09:24:02.223Z,100537.44
2023-01-20T09:26:38.676Z,100538.91
2023-01-20T09:29:10.461Z,100539.09
2023-01-20T09:31:49.595Z,100541.88
2023-01-20T09:34:24.652Z,100533.50
2023-01-20T09:36:57.322Z,100538.88
2023-01-20T09:39:42.674Z,100540.34
2023-01-20T09:42:53.824Z,100555.09
2023-01-20T09:45:52.236Z,100554.41
2023-01-20T09:48:52.997Z,100554.28
2023-01-20T09:51:48.843Z,100554.03
2023-01-20T09:54:28.537Z,100562.69
2023-01-20T09:56:58.905Z,100554.72
2023-01-20T09:59:31.527Z,100560.19
2023-01-20T10:02:05.501Z,100563.97
2023-01-20T10:04:39.650Z,100563.06
2023-01-20T10:07:12.938Z,100556.63
2023-01-20T10:10:02.697Z,100555.19
2023-01-20T10:12:37.585Z,100554.19
2023-01-20T10:15:13.279Z,100553.16
2023-01-20T10:17:48.622Z,100554.66
2023-01-20T10:20:26.626Z,100556.28
2023-01-20T10:23:10.880Z,100560.19
2023-01-20T10:25:59.361Z,100559.25
2023-01-20T10:28:29.511Z,100561.06
2023-01-20T10:30:59.813Z,100562.56
2023-01-20T10:33:40.236Z,100558.16
2023-01-20T10:36:21.214Z,100561.16
2023-01-20T10:38:54.981Z,100565.69
2023-01-20T10:41:32.999Z,100560.88
2023-01-20T10:44:00.017Z,100558.75
2023-01-20T10:46:41.660Z,100560.47
2023-01-20T10:49:35.006Z,100560.34
2023-01-20T10:52:10.381Z,100555.09
2023-01-20T10:54:47.249Z,100552.56
2023-01-20T10:57:15.871Z,100552.16
2023-01-20T11:00:19.202Z,100556.88
2023-01-20T11:02:49.151Z,100558.00
2023-01-20T11:05:30.202Z,100560.00
2023-01-20T11:07:58.503Z,100586.28
2023-01-20T11:10:29.276Z,100568.81
2023-01-20T11:12:59.722Z,100578.91
2023-01-20T11:15:46.556Z,100584.75
2023-01-20T11:18:15.900Z,100583.72
2023-01-20T11:20:47.291Z,100580.06
2023-01-20T11:23:26.757Z,100585.16
2023-01-20T11:25:56.655Z,100576.06
2023-01-20T11:28:24.099Z,100574.38
2023-01-20T11:30:55.829Z,100588.28
2023-01-20T11:33:25.438Z,100580.19
2023-01-20T11:36:03.047Z,100592.00
2023-01-20T11:38:42.820Z,100582.19
2023-01-20T11:41:23.521Z,100578.06
2023-01-20T11:43:55.574Z,100586.16
2023-01-20T11:46:27.013Z,100579.22
2023-01-20T11:49:17.741Z,100579.63
2023-01-20T11:51:51.434Z,100582.75
2023-01-20T11:54:29.514Z,100582.03
2023-01-20T11:57:01.449Z,100578.78
2023-01-20T11:59:30.734Z,100579.47
2023-01-20T12:02:00.722Z,100586.28
2023-01-20T12:04:41.417Z,100572.09
2023-01-20T12:07:39.317Z,100587.56
2023-01-20T12:10:34.769Z,100575.63
2023-01-20T12:13:16.913Z,100586.28
2023-01-20T12:15:52.878Z,100590.69
2023-01-20T12:18:32.519Z,100582.75
2023-01-20T12:21:08.009Z,100570.66
2023-01-20T12:23:51.565Z,100581.75
2023-01-20T12:26:21.098Z,100587.00
2023-01-20T12:29:16.319Z,100578.34
2023-01-20T12:31:43.564Z,100581.03
2023-01-20T12:34:16.219Z,100592.13
2023-01-20T12:36:51.593Z,100566.13
2023-01-20T12:39:29.137Z,100576.94
2023-01-20T12:42:10.716Z,100562.97
2023-01-20T12:44:45.943Z,100576.34
2023-01-20T12:47:23.574Z,100580.72
2023-01-20T12:49:56.180Z,100577.91
2023-01-20T12:52:51.621Z,100589.84
2023-01-20T12:55:27.136Z,100587.69
2023-01-20T12:58:08.836Z,100584.56
2023-01-20T13:00:49.930Z,100578.50
2023-01-20T13:03:38.439Z,100580.03
2023-01-20T13:06:28.096Z,100581.34
2023-01-20T13:09:19.079Z,100590.56
2023-01-20T13:12:07.185Z,100587.00
2023-01-20T13:14:41.479Z,100584.03
2023-01-20T13:17:48.465Z,100573.66
2023-01-20T13:20:22.969Z,100579.63
2023-01-20T13:22:51.369Z,100588.28
2023-01-20T13:25:19.934Z,100579.47
2023-01-20T13:27:49.660Z,100590.00
2023-01-20T13:30:39.514Z,100589.16
2023-01-20T13:33:14.111Z,100587.69
2023-01-20T13:35:43.846Z,100590.53
2023-01-20T13:38:25.610Z,100578.59
2023-01-20T13:40:55.166Z,100582.41
2023-01-20T13:43:30.172Z,100599.13
2023-01-20T13:46:02.804Z,100594.75
2023-01-20T13:48:31.145Z,100582.22
2023-01-20T13:51:15.741Z,100585.91
2023-01-20T13:53:45.606Z,100577.13
2023-01-20T13:56:34.672Z,100589.38
2023-01-20T13:59:01.317Z,100586.13
2023-01-20T14:01:28.556Z,100596.78
2023-01-20T14:04:06.284Z,100595.38
2023-01-20T14:06:35.577Z,100610.75
2023-01-20T14:09:03.449Z,100601.78
2023-01-20T14:11:31.338Z,100588.72
2023-01-20T14:14:01.913Z,100584.44
2023-01-20T14:16:30.829Z,100594.53
2023-01-20T14:19:02.823Z,100595.69
2023-01-20T14:21:30.980Z,100607.03
2023-01-20T14:23:59.647Z,100608.28
2023-01-20T14:26:29.176Z,100601.91
2023-01-20T14:28:58.160Z,100614.84
2023-01-20T14:31:34.021Z,100614.81
2023-01-20T14:34:21.768Z,100611.66
2023-01-20T14:36:48.483Z,100606.16
2023-01-20T14:39:23.840Z,100607.25
2023-01-20T14:41:52.849Z,100606.38
2023-01-20T14:44:25.100Z,100612.06
2023-01-20T14:46:54.296Z,100617.13
2023-01-20T14:49:22.926Z,100618.25
2023-01-20T14:51:53.087Z,100622.03
2023-01-20T14:54:45.512Z,100620.59
2023-01-20T14:57:27.112Z,100627.09
2023-01-20T15:00:19.130Z,100624.41
2023-01-20T15:03:11.229Z,100627.25
2023-01-20T15:05:44.710Z,100627.38
2023-01-20T15:08:15.231Z,100635.56
2023-01-20T15:10:44.681Z,100630.19
2023-01-20T15:13:31.366Z,100625.94
2023-01-20T15:16:16.643Z,100634.00
2023-01-20T15:18:43.089Z,100633.41
2023-01-20T15:21:27.892Z,100628.56
2023-01-20T15:23:54.597Z,100634.34
2023-01-20T15:26:24.338Z,100635.84
2023-01-20T15:28:50.804Z,100625.59
2023-01-20T15:31:17.788Z,100632.34
2023-01-20T15:33:44.439Z,100643.59
2023-01-20T15:36:17.053Z,100640.47
2023-01-20T15:38:43.660Z,100641.72
2023-01-20T15:41:15.859Z,100649.28
2023-01-20T15:43:45.251Z,100648.56
2023-01-20T15:46:18.484Z,100651.03
2023-01-20T15:48:50.549Z,100649.00
2023-01-20T15:51:19.212Z,100654.88
2023-01-20T15:53:46.769Z,100660.63
2023-01-20T15:56:28.832Z,100656.97
2023-01-20T15:58:56.139Z,100656.97
2023-01-20T16:01:26.791Z,100655.66
2023-01-20T16:03:56.856Z,100657.09
2023-01-20T16:06:28.155Z,100662.00
2023-01-20T16:08:54.720Z,100659.81
2023-01-20T16:11:21.359Z,100666.03
2023-01-20T16:13:50.265Z,100673.25
2023-01-20T16:16:29.511Z,100667.13
2023-01-20T16:18:56.062Z,100676.19
2023-01-20T16:21:22.639Z,100667.25
2023-01-20T16:23:49.070Z,100672.38
2023-01-20T16:26:24.439Z,100685.31
2023-01-20T16:28:56.141Z,100680.81
2023-01-20T16:31:23.906Z,100682.38
2023-01-20T16:33:51.960Z,100684.47
2023-01-20T16:36:20.327Z,100678.97
2023-01-20T16:38:47.839Z,100686.19
2023-01-20T16:41:21.258Z,100691.44
2023-01-20T16:43:47.898Z,100697.53
2023-01-20T16:46:20.563Z,100690.94
2023-01-20T16:48:53.421Z,100706.19
2023-01-20T16:51:25.712Z,100704.38
2023-01-20T16:53:53.447Z,100705.84
2023-01-20T16:56:24.925Z,100704.72
2023-01-20T16:58:53.483Z,100699.72
2023-01-20T17:01:24.680Z,100711.44
2023-01-20T17:03:53.283Z,100712.44
2023-01-20T17:06:25.304Z,100708.63
2023-01-20T17:08:56.518Z,100721.22
2023-01-20T17:11:25.538Z,100726.34
2023-01-20T17:13:52.850Z,100734.16
2023-01-20T17:16:20.460Z,100732.19
2023-01-20T17:18:50.851Z,100733.91
2023-01-20T17:21:21.687Z,100737.34
2023-01-20T17:23:52.742Z,100738.41
2023-01-20T17:26:20.170Z,100749.16
2023-01-20T17:28:47.529Z,100743.16
2023-01-20T17:31:14.515Z,100751.72
2023-01-20T17:33:47.345Z,100755.53
2023-01-20T17:36:17.142Z,100759.69
2023-01-20T17:38:44.308Z,100762.75
2023-01-20T17:41:12.573Z,100768.50
2023-01-20T17:43:41.233Z,100764.44
2023-01-20T17:46:34.154Z,100772.03
2023-01-20T17:49:01.722Z,100772.06
2023-01-20T17:51:29.619Z,100772.66
2023-01-20T17:53:57.734Z,100775.81
2023-01-20T17:56:24.580Z,100784.47
2023-01-20T17:58:51.535Z,100781.41
2023-01-20T18:01:19.596Z,100788.13
2023-01-20T18:03:48.239Z,100783.13
2023-01-20T18:06:16.940Z,100791.53
2023-01-20T18:08:44.311Z,100791.75
2023-01-20T18:11:15.483Z,100791.25
2023-01-20T18:13:48.584Z,100795.03
2023-01-20T18:16:17.563Z,100793.47
2023-01-20T18:18:45.906Z,100789.41
2023-01-20T18:21:12.562Z,100793.03
2023-01-20T18:23:39.808Z,100798.06
2023-01-20T18:26:07.597Z,100809.28
2023-01-20T18:28:39.616Z,100796.84
2023-01-20T18:31:14.396Z,100805.59
2023-01-20T18:33:48.630Z,100798.56
2023-01-20T18:36:25.443Z,100798.03
2023-01-20T18:38:53.527Z,100797.06
2023-01-20T18:41:20.919Z,100804.16
2023-01-20T18:43:50.070Z,100795.25
2023-01-20T18:46:17.093Z,100796.31
2023-01-20T18:48:47.368Z,100798.03
2023-01-20T18:51:15.949Z,100799.00
2023-01-20T18:53:44.277Z,100800.34
2023-01-20T18:56:13.674Z,100798.75
2023-01-20T18:58:45.718Z,100806.09
2023-01-20T19:01:16.813Z,100800.44
2023-01-20T19:03:45.990Z,100795.94
2023-01-20T19:06:15.412Z,100796.19
2023-01-20T19:08:44.088Z,100798.63
2023-01-20T19:11:15.132Z,100796.69
2023-01-20T19:13:41.871Z,100802.06
2023-01-20T19:16:12.747Z,100796.28
2023-01-20T19:18:40.508Z,100798.63
2023-01-20T19:21:17.489Z,100803.84
2023-01-20T19:23:47.736Z,100805.31
2023-01-20T19:26:15.291Z,100801.25
2023-01-20T19:28:41.703Z,100804.69
2023-01-20T19:31:10.876Z,100807.50
2023-01-20T19:33:38.055Z,100813.94
2023-01-20T19:36:10.427Z,100810.28
2023-01-20T19:38:37.306Z,100816.25
2023-01-20T19:41:15.808Z,100816.41
2023-01-20T19:43:43.242Z,100816.84
2023-01-20T19:46:13.254Z,100819.53
2023-01-20T19:48:40.898Z,100817.84
2023-01-20T19:51:13.504Z,100828.09
2023-01-20T19:53:40.791Z,100823.59
2023-01-20T19:56:10.015Z,100820.91
2023-01-20T19:58:37.607Z,100819.81
2023-01-20T20:01:22.016Z,100823.81
2023-01-20T20:04:01.068Z,100819.41
2023-01-20T20:06:32.466Z,100822.19
2023-01-20T20:09:01.709Z,100824.22
2023-01-20T20:11:29.898Z,100818.94
2023-01-20T20:13:58.615Z,100819.09
2023-01-20T20:16:30.222Z,100818.47
2023-01-20T20:18:57.989Z,100818.13
2023-01-20T20:21:25.617Z,100825.16
2023-01-20T20:23:59.675Z,100825.50
2023-01-20T20:26:29.988Z,100827.47
2023-01-20T20:28:58.716Z,100827.22
2023-01-20T20:31:31.220Z,100829.06
2023-01-20T20:33:59.274Z,100829.19
2023-01-20T20:36:28.237Z,100832.72
2023-01-20T20:38:55.089Z,100834.22
2023-01-20T20:41:22.344Z,100834.56
2023-01-20T20:43:48.887Z,100833.94
2023-01-20T20:46:17.159Z,100839.91
2023-01-20T20:48:43.842Z,100842.94
2023-01-20T20:51:12.615Z,100842.84
2023-01-20T20:53:39.363Z,100838.19
2023-01-20T20:56:14.011Z,100849.16
2023-01-20T20:58:59.480Z,100848.06
2023-01-20T21:01:28.356Z,100839.06
2023-01-20T21:03:57.468Z,100839.91
2023-01-20T21:06:24.880Z,100846.16
2023-01-20T21:08:53.693Z,100849.91
2023-01-20T21:11:20.868Z,100844.44
2023-01-20T21:13:49.455Z,100852.09
2023-01-20T21:16:17.928Z,100855.25
2023-01-20T21:18:44.892Z,100853.69
2023-01-20T21:21:19.926Z,100860.88
2023-01-20T21:23:54.511Z,100861.50
2023-01-20T21:26:21.851Z,100858.81
2023-01-20T21:28:51.478Z,100858.19
2023-01-20T21:31:26.991Z,100862.44
2023-01-20T21:33:56.371Z,100872.56
2023-01-20T21:36:26.344Z,100868.69
2023-01-20T21:38:52.894Z,100872.34
2023-01-20T21:41:19.414Z,100871.25
2023-01-20T21:44:06.669Z,100874.19
2023-01-20T21:46:39.520Z,100880.75
2023-01-20T21:49:26.218Z,100878.78
2023-01-20T21:52:11.554Z,100881.47
2023-01-20T21:54:39.838Z,100886.72
2023-01-20T21:57:06.474Z,100881.38
2023-01-20T21:59:32.928Z,100880.41
2023-01-20T22:02:02.142Z,100892.09
2023-01-20T22:04:31.806Z,100886.97
2023-01-20T22:06:58.293Z,100887.69
2023-01-20T22:09:24.754Z,100892.09
2023-01-20T22:11:51.130Z,100894.03
2023-01-20T22:14:17.729Z,100899.19
2023-01-20T22:16:44.288Z,100903.69
2023-01-20T22:19:14.089Z,100903.56
2023-01-20T22:21:40.965Z,100908.44
2023-01-20T22:24:07.957Z,100909.16
2023-01-20T22:26:42.545Z,100917.22
2023-01-20T22:29:09.568Z,100910.88
2023-01-20T22:31:39.458Z,100916.13
2023-01-20T22:34:09.996Z,100916.25
2023-01-20T22:36:37.842Z,100920.66
2023-01-20T22:39:06.522Z,100919.16
2023-01-20T22:41:36.210Z,100921.72
2023-01-20T22:44:07.466Z,100920.84
2023-01-20T22:46:34.131Z,100922.56
2023-01-20T22:49:00.538Z,100922.56
2023-01-20T22:51:29.425Z,100920.75
2023-01-20T22:53:57.911Z,100936.84
2023-01-20T22:56:27.454Z,100931.47
2023-01-20T22:58:55.674Z,100929.75
2023-01-20T23:01:25.378Z,100927.22
2023-01-20T23:03:56.508Z,100924.53
2023-01-20T23:06:24.338Z,100933.53
2023-01-20T23:08:51.030Z,100936.94
2023-01-20T23:11:25.284Z,100930.00
2023-01-20T23:13:52.162Z,100932.56
2023-01-20T23:16:22.281Z,100936.13
2023-01-20T23:18:52.655Z,100933.63
2023-01-20T23:21:21.781Z,100937.19
2023-01-20T23:23:56.623Z,100932.69
2023-01-20T23:26:26.123Z,100934.63
2023-01-20T23:28:53.621Z,100938.81
2023-01-20T23:31:20.688Z,100940.09
2023-01-20T23:33:47.246Z,100943.31
2023-01-20T23:36:20.409Z,100942.44
2023-01-20T23:38:49.715Z,100940.63
2023-01-20T23:41:16.967Z,100942.31
2023-01-20T23:43:43.389Z,100943.50
2023-01-20T23:46:10.600Z,100956.72
2023-01-20T23:48:39.905Z,100961.31
2023-01-20T23:51:06.823Z,100968.31
2023-01-20T23:53:36.624Z,100966.59
2023-01-20T23:56:06.457Z,100970.00
2023-01-20T23:58:35.390Z,100972.81
